sensor_id;sensor_type;location;lat;lon;timestamp;P1;durP1;ratioP1;P2;durP2;ratioP2
12535;SDS011;6334;48.696;2.114;2022-10-20T00:00:23;9.37;;;6.57;;
12535;SDS011;6334;48.696;2.114;2022-10-20T00:02:53;10.37;;;6.57;;
12535;SDS011;6334;48.696;2.114;2022-10-20T00:05:24;9.40;;;5.93;;
12535;SDS011;6334;48.696;2.114;2022-10-20T00:07:54;8.93;;;6.20;;
12535;SDS011;6334;48.696;2.114;2022-10-20T00:10:25;9.17;;;6.53;;
12535;SDS011;6334;48.696;2.114;2022-10-20T00:12:55;10.57;;;6.60;;
12535;SDS011;6334;48.696;2.114;2022-10-20T00:15:26;9.13;;;6.27;;
12535;SDS011;6334;48.696;2.114;2022-10-20T00:17:56;12.50;;;6.33;;
12535;SDS011;6334;48.696;2.114;2022-10-20T00:20:28;10.23;;;6.47;;
12535;SDS011;6334;48.696;2.114;2022-10-20T00:22:58;12.67;;;6.53;;
12535;SDS011;6334;48.696;2.114;2022-10-20T00:25:29;10.17;;;6.27;;
12535;SDS011;6334;48.696;2.114;2022-10-20T00:28:00;9.00;;;6.27;;
12535;SDS011;6334;48.696;2.114;2022-10-20T00:30:30;11.90;;;5.87;;
12535;SDS011;6334;48.696;2.114;2022-10-20T00:33:03;8.77;;;6.00;;
12535;SDS011;6334;48.696;2.114;2022-10-20T00:35:36;10.23;;;6.20;;
12535;SDS011;6334;48.696;2.114;2022-10-20T00:38:04;10.00;;;6.17;;
12535;SDS011;6334;48.696;2.114;2022-10-20T00:40:34;8.03;;;5.83;;
12535;SDS011;6334;48.696;2.114;2022-10-20T00:43:08;7.23;;;5.83;;
12535;SDS011;6334;48.696;2.114;2022-10-20T00:45:35;11.87;;;6.13;;
12535;SDS011;6334;48.696;2.114;2022-10-20T00:48:07;10.07;;;6.30;;
12535;SDS011;6334;48.696;2.114;2022-10-20T00:50:42;11.13;;;6.27;;
12535;SDS011;6334;48.696;2.114;2022-10-20T00:53:13;9.33;;;5.90;;
12535;SDS011;6334;48.696;2.114;2022-10-20T00:55:45;10.67;;;6.40;;
12535;SDS011;6334;48.696;2.114;2022-10-20T00:58:16;12.00;;;6.73;;
12535;SDS011;6334;48.696;2.114;2022-10-20T01:00:47;8.50;;;5.87;;
12535;SDS011;6334;48.696;2.114;2022-10-20T01:03:19;9.60;;;6.30;;
12535;SDS011;6334;48.696;2.114;2022-10-20T01:05:47;11.40;;;5.73;;
12535;SDS011;6334;48.696;2.114;2022-10-20T01:08:18;8.37;;;5.93;;
12535;SDS011;6334;48.696;2.114;2022-10-20T01:13:28;11.53;;;5.87;;
12535;SDS011;6334;48.696;2.114;2022-10-20T01:21:33;8.83;;;5.57;;
12535;SDS011;6334;48.696;2.114;2022-10-20T01:24:26;9.57;;;5.37;;
12535;SDS011;6334;48.696;2.114;2022-10-20T01:26:57;11.73;;;5.60;;
12535;SDS011;6334;48.696;2.114;2022-10-20T01:29:51;8.77;;;5.43;;
12535;SDS011;6334;48.696;2.114;2022-10-20T01:43:15;8.37;;;5.40;;
12535;SDS011;6334;48.696;2.114;2022-10-20T01:45:45;8.40;;;5.40;;
12535;SDS011;6334;48.696;2.114;2022-10-20T01:48:15;8.63;;;5.33;;
12535;SDS011;6334;48.696;2.114;2022-10-20T01:50:45;12.90;;;5.63;;
12535;SDS011;6334;48.696;2.114;2022-10-20T01:53:16;10.20;;;6.00;;
12535;SDS011;6334;48.696;2.114;2022-10-20T01:55:48;13.20;;;5.50;;
12535;SDS011;6334;48.696;2.114;2022-10-20T02:03:58;9.40;;;5.50;;
12535;SDS011;6334;48.696;2.114;2022-10-20T02:06:38;10.50;;;5.27;;
12535;SDS011;6334;48.696;2.114;2022-10-20T02:09:03;12.90;;;5.13;;
12535;SDS011;6334;48.696;2.114;2022-10-20T02:14:23;10.50;;;5.50;;
12535;SDS011;6334;48.696;2.114;2022-10-20T02:16:57;11.30;;;4.87;;
12535;SDS011;6334;48.696;2.114;2022-10-20T02:19:28;13.20;;;4.97;;
12535;SDS011;6334;48.696;2.114;2022-10-20T02:21:57;11.07;;;5.43;;
12535;SDS011;6334;48.696;2.114;2022-10-20T02:24:32;10.53;;;4.70;;
12535;SDS011;6334;48.696;2.114;2022-10-20T02:27:04;11.13;;;5.40;;
12535;SDS011;6334;48.696;2.114;2022-10-20T02:29:36;10.20;;;4.70;;
12535;SDS011;6334;48.696;2.114;2022-10-20T02:32:04;9.70;;;5.03;;
12535;SDS011;6334;48.696;2.114;2022-10-20T02:34:34;10.90;;;4.73;;
12535;SDS011;6334;48.696;2.114;2022-10-20T02:37:05;10.37;;;5.70;;
12535;SDS011;6334;48.696;2.114;2022-10-20T02:39:35;10.17;;;4.97;;
12535;SDS011;6334;48.696;2.114;2022-10-20T02:42:06;11.67;;;4.97;;
12535;SDS011;6334;48.696;2.114;2022-10-20T02:44:36;11.87;;;5.50;;
12535;SDS011;6334;48.696;2.114;2022-10-20T02:47:07;14.37;;;5.03;;
12535;SDS011;6334;48.696;2.114;2022-10-20T02:49:37;9.47;;;4.80;;
12535;SDS011;6334;48.696;2.114;2022-10-20T02:52:11;15.00;;;4.90;;
12535;SDS011;6334;48.696;2.114;2022-10-20T02:54:41;11.63;;;4.70;;
12535;SDS011;6334;48.696;2.114;2022-10-20T02:57:12;14.40;;;4.43;;
12535;SDS011;6334;48.696;2.114;2022-10-20T02:59:43;10.20;;;5.23;;
12535;SDS011;6334;48.696;2.114;2022-10-20T03:02:13;10.43;;;4.70;;
12535;SDS011;6334;48.696;2.114;2022-10-20T03:04:44;9.60;;;4.60;;
12535;SDS011;6334;48.696;2.114;2022-10-20T03:07:14;12.13;;;4.87;;
12535;SDS011;6334;48.696;2.114;2022-10-20T03:09:50;8.23;;;4.70;;
12535;SDS011;6334;48.696;2.114;2022-10-20T03:12:19;10.63;;;4.27;;
12535;SDS011;6334;48.696;2.114;2022-10-20T03:14:50;11.03;;;4.70;;
12535;SDS011;6334;48.696;2.114;2022-10-20T03:17:20;9.87;;;4.57;;
12535;SDS011;6334;48.696;2.114;2022-10-20T03:19:51;7.97;;;4.53;;
12535;SDS011;6334;48.696;2.114;2022-10-20T03:22:21;9.97;;;4.90;;
12535;SDS011;6334;48.696;2.114;2022-10-20T03:24:52;11.13;;;4.60;;
12535;SDS011;6334;48.696;2.114;2022-10-20T03:27:22;6.47;;;4.43;;
12535;SDS011;6334;48.696;2.114;2022-10-20T03:29:53;9.23;;;4.73;;
12535;SDS011;6334;48.696;2.114;2022-10-20T03:32:24;11.13;;;5.10;;
12535;SDS011;6334;48.696;2.114;2022-10-20T03:34:55;8.43;;;4.53;;
12535;SDS011;6334;48.696;2.114;2022-10-20T03:37:25;9.27;;;4.30;;
12535;SDS011;6334;48.696;2.114;2022-10-20T03:39:56;9.80;;;4.60;;
12535;SDS011;6334;48.696;2.114;2022-10-20T03:42:26;9.77;;;4.27;;
12535;SDS011;6334;48.696;2.114;2022-10-20T03:44:57;11.03;;;4.70;;
12535;SDS011;6334;48.696;2.114;2022-10-20T03:47:27;8.27;;;4.60;;
12535;SDS011;6334;48.696;2.114;2022-10-20T03:49:58;6.53;;;4.43;;
12535;SDS011;6334;48.696;2.114;2022-10-20T03:52:28;8.67;;;4.30;;
12535;SDS011;6334;48.696;2.114;2022-10-20T03:54:59;8.93;;;4.40;;
12535;SDS011;6334;48.696;2.114;2022-10-20T03:57:29;8.23;;;4.83;;
12535;SDS011;6334;48.696;2.114;2022-10-20T04:00:01;8.53;;;4.40;;
12535;SDS011;6334;48.696;2.114;2022-10-20T04:02:33;7.37;;;4.20;;
12535;SDS011;6334;48.696;2.114;2022-10-20T04:05:05;9.20;;;4.27;;
12535;SDS011;6334;48.696;2.114;2022-10-20T04:07:37;6.30;;;4.10;;
12535;SDS011;6334;48.696;2.114;2022-10-20T04:10:08;8.13;;;4.30;;
12535;SDS011;6334;48.696;2.114;2022-10-20T04:12:38;8.10;;;4.50;;
12535;SDS011;6334;48.696;2.114;2022-10-20T04:15:09;10.17;;;4.80;;
12535;SDS011;6334;48.696;2.114;2022-10-20T04:17:39;7.67;;;4.13;;
12535;SDS011;6334;48.696;2.114;2022-10-20T04:20:10;6.87;;;4.13;;
12535;SDS011;6334;48.696;2.114;2022-10-20T04:22:39;8.87;;;4.17;;
12535;SDS011;6334;48.696;2.114;2022-10-20T04:25:10;8.87;;;4.27;;
12535;SDS011;6334;48.696;2.114;2022-10-20T04:27:45;8.40;;;4.33;;
12535;SDS011;6334;48.696;2.114;2022-10-20T04:30:19;7.63;;;3.93;;
12535;SDS011;6334;48.696;2.114;2022-10-20T04:32:50;8.73;;;4.40;;
12535;SDS011;6334;48.696;2.114;2022-10-20T04:35:23;12.20;;;4.13;;
12535;SDS011;6334;48.696;2.114;2022-10-20T04:37:53;6.73;;;4.20;;
12535;SDS011;6334;48.696;2.114;2022-10-20T04:40:24;4.93;;;3.60;;
12535;SDS011;6334;48.696;2.114;2022-10-20T04:42:54;11.37;;;4.53;;
12535;SDS011;6334;48.696;2.114;2022-10-20T04:45:25;7.93;;;3.93;;
12535;SDS011;6334;48.696;2.114;2022-10-20T04:47:55;7.30;;;3.83;;
12535;SDS011;6334;48.696;2.114;2022-10-20T04:50:27;6.33;;;4.13;;
12535;SDS011;6334;48.696;2.114;2022-10-20T04:52:58;5.57;;;3.70;;
12535;SDS011;6334;48.696;2.114;2022-10-20T04:55:29;7.23;;;3.93;;
12535;SDS011;6334;48.696;2.114;2022-10-20T04:58:01;8.20;;;3.90;;
12535;SDS011;6334;48.696;2.114;2022-10-20T05:00:33;8.87;;;4.00;;
12535;SDS011;6334;48.696;2.114;2022-10-20T05:03:04;8.70;;;4.03;;
12535;SDS011;6334;48.696;2.114;2022-10-20T05:05:35;7.93;;;4.00;;
12535;SDS011;6334;48.696;2.114;2022-10-20T05:08:06;7.23;;;4.20;;
12535;SDS011;6334;48.696;2.114;2022-10-20T05:10:37;5.97;;;3.37;;
12535;SDS011;6334;48.696;2.114;2022-10-20T05:13:08;8.87;;;4.17;;
12535;SDS011;6334;48.696;2.114;2022-10-20T05:15:38;5.67;;;4.00;;
12535;SDS011;6334;48.696;2.114;2022-10-20T05:18:09;7.57;;;3.80;;
12535;SDS011;6334;48.696;2.114;2022-10-20T05:20:39;10.33;;;3.67;;
12535;SDS011;6334;48.696;2.114;2022-10-20T05:23:09;5.63;;;3.70;;
12535;SDS011;6334;48.696;2.114;2022-10-20T05:25:40;6.83;;;3.73;;
12535;SDS011;6334;48.696;2.114;2022-10-20T05:28:11;6.37;;;4.10;;
12535;SDS011;6334;48.696;2.114;2022-10-20T05:30:41;7.03;;;3.47;;
12535;SDS011;6334;48.696;2.114;2022-10-20T05:33:11;8.73;;;3.80;;
12535;SDS011;6334;48.696;2.114;2022-10-20T05:35:41;8.20;;;3.70;;
12535;SDS011;6334;48.696;2.114;2022-10-20T05:38:11;5.47;;;3.57;;
12535;SDS011;6334;48.696;2.114;2022-10-20T05:40:41;6.87;;;3.47;;
12535;SDS011;6334;48.696;2.114;2022-10-20T05:43:12;8.23;;;3.50;;
12535;SDS011;6334;48.696;2.114;2022-10-20T05:45:42;5.50;;;3.50;;
12535;SDS011;6334;48.696;2.114;2022-10-20T05:48:13;4.85;;;3.50;;
12535;SDS011;6334;48.696;2.114;2022-10-20T05:50:46;6.57;;;3.72;;
12535;SDS011;6334;48.696;2.114;2022-10-20T05:53:20;6.47;;;3.72;;
12535;SDS011;6334;48.696;2.114;2022-10-20T05:55:49;8.13;;;3.87;;
12535;SDS011;6334;48.696;2.114;2022-10-20T05:58:21;7.40;;;3.50;;
12535;SDS011;6334;48.696;2.114;2022-10-20T06:00:52;7.57;;;3.60;;
12535;SDS011;6334;48.696;2.114;2022-10-20T06:03:23;7.77;;;3.53;;
12535;SDS011;6334;48.696;2.114;2022-10-20T06:05:58;6.93;;;3.63;;
12535;SDS011;6334;48.696;2.114;2022-10-20T06:08:28;7.95;;;3.45;;
12535;SDS011;6334;48.696;2.114;2022-10-20T06:11:05;7.77;;;3.30;;
12535;SDS011;6334;48.696;2.114;2022-10-20T06:13:43;4.43;;;3.37;;
12535;SDS011;6334;48.696;2.114;2022-10-20T06:16:15;5.00;;;3.50;;
12535;SDS011;6334;48.696;2.114;2022-10-20T06:18:43;6.40;;;3.63;;
12535;SDS011;6334;48.696;2.114;2022-10-20T06:21:23;7.00;;;3.67;;
12535;SDS011;6334;48.696;2.114;2022-10-20T06:23:43;6.07;;;3.50;;
12535;SDS011;6334;48.696;2.114;2022-10-20T06:26:19;4.50;;;3.39;;
12535;SDS011;6334;48.696;2.114;2022-10-20T06:28:49;7.87;;;3.67;;
12535;SDS011;6334;48.696;2.114;2022-10-20T06:31:26;5.50;;;3.40;;
12535;SDS011;6334;48.696;2.114;2022-10-20T06:33:55;3.82;;;3.10;;
12535;SDS011;6334;48.696;2.114;2022-10-20T06:36:25;4.43;;;3.23;;
12535;SDS011;6334;48.696;2.114;2022-10-20T06:38:56;3.42;;;2.76;;
12535;SDS011;6334;48.696;2.114;2022-10-20T06:41:26;6.32;;;2.80;;
12535;SDS011;6334;48.696;2.114;2022-10-20T06:43:59;5.62;;;3.29;;
12535;SDS011;6334;48.696;2.114;2022-10-20T06:46:31;4.97;;;3.07;;
12535;SDS011;6334;48.696;2.114;2022-10-20T06:49:04;3.87;;;2.67;;
12535;SDS011;6334;48.696;2.114;2022-10-20T06:51:34;4.53;;;2.63;;
12535;SDS011;6334;48.696;2.114;2022-10-20T06:54:17;6.12;;;2.75;;
12535;SDS011;6334;48.696;2.114;2022-10-20T06:56:48;7.12;;;3.00;;
12535;SDS011;6334;48.696;2.114;2022-10-20T06:59:17;7.93;;;3.57;;
12535;SDS011;6334;48.696;2.114;2022-10-20T07:01:47;10.60;;;3.37;;
12535;SDS011;6334;48.696;2.114;2022-10-20T07:04:17;9.40;;;3.12;;
12535;SDS011;6334;48.696;2.114;2022-10-20T07:06:47;5.87;;;3.03;;
12535;SDS011;6334;48.696;2.114;2022-10-20T07:09:17;4.37;;;3.00;;
12535;SDS011;6334;48.696;2.114;2022-10-20T07:11:50;5.30;;;3.35;;
12535;SDS011;6334;48.696;2.114;2022-10-20T07:14:19;6.90;;;3.18;;
12535;SDS011;6334;48.696;2.114;2022-10-20T07:16:49;6.00;;;3.03;;
12535;SDS011;6334;48.696;2.114;2022-10-20T07:19:20;3.40;;;3.00;;
12535;SDS011;6334;48.696;2.114;2022-10-20T07:21:49;5.20;;;3.44;;
12535;SDS011;6334;48.696;2.114;2022-10-20T07:24:19;6.47;;;3.80;;
12535;SDS011;6334;48.696;2.114;2022-10-20T07:26:49;5.03;;;3.23;;
12535;SDS011;6334;48.696;2.114;2022-10-20T07:29:20;3.00;;;2.70;;
12535;SDS011;6334;48.696;2.114;2022-10-20T07:31:51;5.43;;;3.10;;
12535;SDS011;6334;48.696;2.114;2022-10-20T07:34:21;4.73;;;3.07;;
12535;SDS011;6334;48.696;2.114;2022-10-20T07:36:51;5.77;;;2.97;;
12535;SDS011;6334;48.696;2.114;2022-10-20T07:39:22;5.63;;;2.73;;
12535;SDS011;6334;48.696;2.114;2022-10-20T07:41:52;8.40;;;3.10;;
12535;SDS011;6334;48.696;2.114;2022-10-20T07:44:23;4.60;;;2.77;;
12535;SDS011;6334;48.696;2.114;2022-10-20T07:46:53;2.90;;;2.70;;
12535;SDS011;6334;48.696;2.114;2022-10-20T07:49:25;5.57;;;3.03;;
12535;SDS011;6334;48.696;2.114;2022-10-20T07:51:55;3.50;;;3.20;;
12535;SDS011;6334;48.696;2.114;2022-10-20T07:54:27;6.47;;;3.80;;
12535;SDS011;6334;48.696;2.114;2022-10-20T07:56:57;4.37;;;3.47;;
12535;SDS011;6334;48.696;2.114;2022-10-20T07:59:27;4.63;;;2.77;;
12535;SDS011;6334;48.696;2.114;2022-10-20T08:02:00;6.00;;;2.87;;
12535;SDS011;6334;48.696;2.114;2022-10-20T08:04:29;6.00;;;3.13;;
12535;SDS011;6334;48.696;2.114;2022-10-20T08:07:00;3.22;;;2.35;;
12535;SDS011;6334;48.696;2.114;2022-10-20T08:09:31;5.67;;;2.53;;
12535;SDS011;6334;48.696;2.114;2022-10-20T08:12:04;5.87;;;2.67;;
12535;SDS011;6334;48.696;2.114;2022-10-20T08:14:36;6.23;;;2.70;;
12535;SDS011;6334;48.696;2.114;2022-10-20T08:17:06;3.60;;;2.47;;
12535;SDS011;6334;48.696;2.114;2022-10-20T08:19:37;5.33;;;2.33;;
12535;SDS011;6334;48.696;2.114;2022-10-20T08:22:07;4.37;;;2.50;;
12535;SDS011;6334;48.696;2.114;2022-10-20T08:24:38;3.33;;;2.87;;
12535;SDS011;6334;48.696;2.114;2022-10-20T08:27:08;6.20;;;2.60;;
12535;SDS011;6334;48.696;2.114;2022-10-20T08:29:38;7.90;;;3.20;;
12535;SDS011;6334;48.696;2.114;2022-10-20T08:32:07;2.67;;;2.30;;
12535;SDS011;6334;48.696;2.114;2022-10-20T08:34:37;5.03;;;2.77;;
12535;SDS011;6334;48.696;2.114;2022-10-20T08:37:08;4.47;;;2.33;;
12535;SDS011;6334;48.696;2.114;2022-10-20T08:39:38;4.27;;;2.70;;
12535;SDS011;6334;48.696;2.114;2022-10-20T08:42:09;3.33;;;2.90;;
12535;SDS011;6334;48.696;2.114;2022-10-20T08:44:40;7.33;;;2.93;;
12535;SDS011;6334;48.696;2.114;2022-10-20T08:47:18;4.50;;;2.33;;
12535;SDS011;6334;48.696;2.114;2022-10-20T08:49:45;3.27;;;2.60;;
12535;SDS011;6334;48.696;2.114;2022-10-20T08:52:15;2.60;;;2.17;;
12535;SDS011;6334;48.696;2.114;2022-10-20T08:54:46;5.10;;;3.23;;
12535;SDS011;6334;48.696;2.114;2022-10-20T08:57:27;3.93;;;2.67;;
12535;SDS011;6334;48.696;2.114;2022-10-20T08:59:45;4.90;;;2.70;;
12535;SDS011;6334;48.696;2.114;2022-10-20T09:02:15;3.37;;;2.77;;
12535;SDS011;6334;48.696;2.114;2022-10-20T09:07:32;4.97;;;2.70;;
12535;SDS011;6334;48.696;2.114;2022-10-20T09:12:36;3.30;;;2.87;;
12535;SDS011;6334;48.696;2.114;2022-10-20T09:15:07;5.40;;;3.23;;
12535;SDS011;6334;48.696;2.114;2022-10-20T09:17:38;4.00;;;2.47;;
12535;SDS011;6334;48.696;2.114;2022-10-20T09:20:10;2.80;;;2.50;;
12535;SDS011;6334;48.696;2.114;2022-10-20T09:22:38;4.80;;;2.90;;
12535;SDS011;6334;48.696;2.114;2022-10-20T09:25:11;5.67;;;3.13;;
12535;SDS011;6334;48.696;2.114;2022-10-20T09:27:39;2.70;;;2.50;;
12535;SDS011;6334;48.696;2.114;2022-10-20T09:30:14;2.80;;;2.26;;
12535;SDS011;6334;48.696;2.114;2022-10-20T09:32:41;3.93;;;2.70;;
12535;SDS011;6334;48.696;2.114;2022-10-20T09:35:27;5.83;;;2.90;;
12535;SDS011;6334;48.696;2.114;2022-10-20T09:40:56;3.77;;;2.30;;
12535;SDS011;6334;48.696;2.114;2022-10-20T09:43:25;3.97;;;2.53;;
12535;SDS011;6334;48.696;2.114;2022-10-20T09:46:09;2.43;;;2.23;;
12535;SDS011;6334;48.696;2.114;2022-10-20T09:48:32;4.10;;;2.17;;
12535;SDS011;6334;48.696;2.114;2022-10-20T09:51:01;6.03;;;2.60;;
12535;SDS011;6334;48.696;2.114;2022-10-20T09:53:45;3.12;;;2.25;;
12535;SDS011;6334;48.696;2.114;2022-10-20T09:56:08;2.80;;;2.17;;
12535;SDS011;6334;48.696;2.114;2022-10-20T09:58:38;3.93;;;2.27;;
12535;SDS011;6334;48.696;2.114;2022-10-20T10:01:11;4.63;;;2.60;;
12535;SDS011;6334;48.696;2.114;2022-10-20T10:03:41;2.60;;;2.23;;
12535;SDS011;6334;48.696;2.114;2022-10-20T10:06:21;2.77;;;1.87;;
12535;SDS011;6334;48.696;2.114;2022-10-20T10:08:58;2.57;;;1.93;;
12535;SDS011;6334;48.696;2.114;2022-10-20T10:11:30;4.10;;;2.03;;
12535;SDS011;6334;48.696;2.114;2022-10-20T10:13:57;3.40;;;2.13;;
12535;SDS011;6334;48.696;2.114;2022-10-20T10:16:26;3.60;;;2.03;;
12535;SDS011;6334;48.696;2.114;2022-10-20T10:18:57;3.17;;;2.03;;
12535;SDS011;6334;48.696;2.114;2022-10-20T10:21:28;2.80;;;1.50;;
12535;SDS011;6334;48.696;2.114;2022-10-20T10:23:59;3.40;;;1.97;;
12535;SDS011;6334;48.696;2.114;2022-10-20T10:29:20;2.23;;;1.70;;
12535;SDS011;6334;48.696;2.114;2022-10-20T10:31:56;3.47;;;1.77;;
12535;SDS011;6334;48.696;2.114;2022-10-20T10:34:38;3.93;;;2.13;;
12535;SDS011;6334;48.696;2.114;2022-10-20T10:37:26;2.13;;;1.70;;
12535;SDS011;6334;48.696;2.114;2022-10-20T10:39:55;1.67;;;1.51;;
12535;SDS011;6334;48.696;2.114;2022-10-20T10:45:22;2.53;;;1.67;;
12535;SDS011;6334;48.696;2.114;2022-10-20T10:47:56;3.10;;;1.63;;
12535;SDS011;6334;48.696;2.114;2022-10-20T10:50:33;4.77;;;2.40;;
12535;SDS011;6334;48.696;2.114;2022-10-20T10:53:15;3.20;;;1.53;;
12535;SDS011;6334;48.696;2.114;2022-10-20T10:55:57;4.50;;;1.97;;
12535;SDS011;6334;48.696;2.114;2022-10-20T10:58:37;2.50;;;1.60;;
12535;SDS011;6334;48.696;2.114;2022-10-20T11:01:16;2.40;;;1.73;;
12535;SDS011;6334;48.696;2.114;2022-10-20T11:04:04;3.83;;;1.60;;
12535;SDS011;6334;48.696;2.114;2022-10-20T11:06:47;1.60;;;1.57;;
12535;SDS011;6334;48.696;2.114;2022-10-20T11:09:27;1.73;;;1.50;;
12535;SDS011;6334;48.696;2.114;2022-10-20T11:17:37;2.47;;;1.67;;
12535;SDS011;6334;48.696;2.114;2022-10-20T11:20:09;1.90;;;1.53;;
12535;SDS011;6334;48.696;2.114;2022-10-20T11:25:53;3.56;;;1.34;;
12535;SDS011;6334;48.696;2.114;2022-10-20T11:28:26;1.60;;;1.45;;
12535;SDS011;6334;48.696;2.114;2022-10-20T11:30:56;3.87;;;1.70;;
12535;SDS011;6334;48.696;2.114;2022-10-20T11:33:27;2.37;;;1.90;;
12535;SDS011;6334;48.696;2.114;2022-10-20T11:36:01;3.67;;;2.17;;
12535;SDS011;6334;48.696;2.114;2022-10-20T11:38:43;3.37;;;1.80;;
12535;SDS011;6334;48.696;2.114;2022-10-20T11:44:02;1.67;;;1.57;;
12535;SDS011;6334;48.696;2.114;2022-10-20T11:46:32;2.57;;;2.37;;
12535;SDS011;6334;48.696;2.114;2022-10-20T11:49:07;2.40;;;1.83;;
12535;SDS011;6334;48.696;2.114;2022-10-20T12:00:20;2.78;;;2.17;;
12535;SDS011;6334;48.696;2.114;2022-10-20T12:03:07;1.93;;;1.63;;
12535;SDS011;6334;48.696;2.114;2022-10-20T12:06:07;2.20;;;1.70;;
12535;SDS011;6334;48.696;2.114;2022-10-20T12:14:26;4.97;;;2.20;;
12535;SDS011;6334;48.696;2.114;2022-10-20T12:19:26;4.20;;;2.07;;
12535;SDS011;6334;48.696;2.114;2022-10-20T12:27:23;3.90;;;2.20;;
12535;SDS011;6334;48.696;2.114;2022-10-20T12:29:56;3.40;;;2.43;;
12535;SDS011;6334;48.696;2.114;2022-10-20T12:32:53;3.63;;;2.13;;
12535;SDS011;6334;48.696;2.114;2022-10-20T12:37:56;2.57;;;1.73;;
12535;SDS011;6334;48.696;2.114;2022-10-20T12:40:25;3.07;;;2.13;;
12535;SDS011;6334;48.696;2.114;2022-10-20T12:42:55;2.17;;;1.97;;
12535;SDS011;6334;48.696;2.114;2022-10-20T12:45:28;2.20;;;2.00;;
12535;SDS011;6334;48.696;2.114;2022-10-20T12:48:05;4.97;;;2.50;;
12535;SDS011;6334;48.696;2.114;2022-10-20T12:50:44;5.50;;;1.93;;
12535;SDS011;6334;48.696;2.114;2022-10-20T12:58:31;3.50;;;1.80;;
12535;SDS011;6334;48.696;2.114;2022-10-20T13:01:05;5.03;;;1.75;;
12535;SDS011;6334;48.696;2.114;2022-10-20T13:03:41;3.77;;;2.40;;
12535;SDS011;6334;48.696;2.114;2022-10-20T13:17:02;4.27;;;2.20;;
12535;SDS011;6334;48.696;2.114;2022-10-20T13:19:51;4.13;;;2.60;;
12535;SDS011;6334;48.696;2.114;2022-10-20T13:25:17;3.57;;;2.27;;
12535;SDS011;6334;48.696;2.114;2022-10-20T13:27:46;4.43;;;2.50;;
12535;SDS011;6334;48.696;2.114;2022-10-20T13:30:18;5.90;;;2.90;;
12535;SDS011;6334;48.696;2.114;2022-10-20T13:32:48;3.67;;;2.13;;
12535;SDS011;6334;48.696;2.114;2022-10-20T13:35:23;2.47;;;2.27;;
12535;SDS011;6334;48.696;2.114;2022-10-20T13:38:05;3.87;;;2.50;;
12535;SDS011;6334;48.696;2.114;2022-10-20T13:40:37;2.63;;;2.07;;
12535;SDS011;6334;48.696;2.114;2022-10-20T13:43:26;4.27;;;2.47;;
12535;SDS011;6334;48.696;2.114;2022-10-20T13:46:01;4.00;;;2.50;;
12535;SDS011;6334;48.696;2.114;2022-10-20T13:51:18;4.33;;;2.50;;
12535;SDS011;6334;48.696;2.114;2022-10-20T13:53:49;14.20;;;3.20;;
12535;SDS011;6334;48.696;2.114;2022-10-20T13:56:28;6.23;;;2.73;;
12535;SDS011;6334;48.696;2.114;2022-10-20T14:01:29;6.40;;;3.13;;
12535;SDS011;6334;48.696;2.114;2022-10-20T14:03:58;4.03;;;2.83;;
12535;SDS011;6334;48.696;2.114;2022-10-20T14:06:29;3.20;;;2.50;;
12535;SDS011;6334;48.696;2.114;2022-10-20T14:09:14;6.97;;;2.93;;
12535;SDS011;6334;48.696;2.114;2022-10-20T14:11:41;5.73;;;2.77;;
12535;SDS011;6334;48.696;2.114;2022-10-20T14:14:11;7.07;;;3.00;;
12535;SDS011;6334;48.696;2.114;2022-10-20T14:16:49;5.23;;;2.87;;
12535;SDS011;6334;48.696;2.114;2022-10-20T14:19:18;3.07;;;2.77;;
12535;SDS011;6334;48.696;2.114;2022-10-20T14:21:50;4.37;;;2.90;;
12535;SDS011;6334;48.696;2.114;2022-10-20T14:26:51;4.73;;;3.13;;
12535;SDS011;6334;48.696;2.114;2022-10-20T14:29:21;4.17;;;2.67;;
12535;SDS011;6334;48.696;2.114;2022-10-20T14:31:52;4.47;;;3.03;;
12535;SDS011;6334;48.696;2.114;2022-10-20T14:34:29;2.50;;;2.20;;
12535;SDS011;6334;48.696;2.114;2022-10-20T14:36:58;4.00;;;2.60;;
12535;SDS011;6334;48.696;2.114;2022-10-20T14:39:31;5.03;;;2.80;;
12535;SDS011;6334;48.696;2.114;2022-10-20T14:42:19;6.23;;;2.77;;
12535;SDS011;6334;48.696;2.114;2022-10-20T14:44:52;5.80;;;2.67;;
12535;SDS011;6334;48.696;2.114;2022-10-20T14:47:23;5.17;;;2.97;;
12535;SDS011;6334;48.696;2.114;2022-10-20T14:49:53;6.30;;;2.90;;
12535;SDS011;6334;48.696;2.114;2022-10-20T14:52:27;5.97;;;2.60;;
12535;SDS011;6334;48.696;2.114;2022-10-20T14:54:54;3.30;;;2.90;;
12535;SDS011;6334;48.696;2.114;2022-10-20T14:57:29;4.93;;;3.03;;
12535;SDS011;6334;48.696;2.114;2022-10-20T15:00:01;3.53;;;3.10;;
12535;SDS011;6334;48.696;2.114;2022-10-20T15:02:37;6.63;;;3.20;;
12535;SDS011;6334;48.696;2.114;2022-10-20T15:07:50;5.27;;;3.00;;
12535;SDS011;6334;48.696;2.114;2022-10-20T15:10:21;4.93;;;2.70;;
12535;SDS011;6334;48.696;2.114;2022-10-20T15:12:52;5.40;;;2.80;;
12535;SDS011;6334;48.696;2.114;2022-10-20T15:15:27;4.27;;;3.00;;
12535;SDS011;6334;48.696;2.114;2022-10-20T15:20:34;3.57;;;3.00;;
12535;SDS011;6334;48.696;2.114;2022-10-20T15:23:10;3.87;;;2.57;;
12535;SDS011;6334;48.696;2.114;2022-10-20T15:28:31;5.30;;;2.33;;
12535;SDS011;6334;48.696;2.114;2022-10-20T15:31:01;4.43;;;2.70;;
12535;SDS011;6334;48.696;2.114;2022-10-20T15:33:31;4.37;;;2.77;;
12535;SDS011;6334;48.696;2.114;2022-10-20T15:36:01;4.40;;;2.83;;
12535;SDS011;6334;48.696;2.114;2022-10-20T15:38:31;5.37;;;3.07;;
12535;SDS011;6334;48.696;2.114;2022-10-20T15:41:02;4.37;;;2.97;;
12535;SDS011;6334;48.696;2.114;2022-10-20T15:43:32;4.03;;;2.77;;
12535;SDS011;6334;48.696;2.114;2022-10-20T15:46:03;5.13;;;2.53;;
12535;SDS011;6334;48.696;2.114;2022-10-20T15:48:33;9.80;;;3.10;;
12535;SDS011;6334;48.696;2.114;2022-10-20T15:51:04;8.63;;;3.30;;
12535;SDS011;6334;48.696;2.114;2022-10-20T15:53:34;4.73;;;3.00;;
12535;SDS011;6334;48.696;2.114;2022-10-20T15:56:05;4.27;;;3.00;;
12535;SDS011;6334;48.696;2.114;2022-10-20T15:58:35;5.80;;;3.27;;
12535;SDS011;6334;48.696;2.114;2022-10-20T16:01:06;3.03;;;2.60;;
12535;SDS011;6334;48.696;2.114;2022-10-20T16:03:37;3.40;;;2.50;;
12535;SDS011;6334;48.696;2.114;2022-10-20T16:06:08;2.67;;;2.47;;
12535;SDS011;6334;48.696;2.114;2022-10-20T16:08:41;5.23;;;3.27;;
12535;SDS011;6334;48.696;2.114;2022-10-20T16:11:09;6.20;;;3.20;;
12535;SDS011;6334;48.696;2.114;2022-10-20T16:13:39;5.87;;;3.40;;
12535;SDS011;6334;48.696;2.114;2022-10-20T16:16:13;4.30;;;2.90;;
12535;SDS011;6334;48.696;2.114;2022-10-20T16:18:42;4.97;;;3.27;;
12535;SDS011;6334;48.696;2.114;2022-10-20T16:21:11;4.93;;;3.23;;
12535;SDS011;6334;48.696;2.114;2022-10-20T16:23:41;5.47;;;2.90;;
12535;SDS011;6334;48.696;2.114;2022-10-20T16:26:12;4.97;;;3.13;;
12535;SDS011;6334;48.696;2.114;2022-10-20T16:28:43;7.30;;;3.50;;
12535;SDS011;6334;48.696;2.114;2022-10-20T16:31:14;6.10;;;3.00;;
12535;SDS011;6334;48.696;2.114;2022-10-20T16:33:45;5.77;;;3.13;;
12535;SDS011;6334;48.696;2.114;2022-10-20T16:36:14;8.80;;;3.60;;
12535;SDS011;6334;48.696;2.114;2022-10-20T16:38:44;7.60;;;3.67;;
12535;SDS011;6334;48.696;2.114;2022-10-20T16:41:14;4.73;;;3.50;;
12535;SDS011;6334;48.696;2.114;2022-10-20T16:43:45;8.27;;;3.87;;
12535;SDS011;6334;48.696;2.114;2022-10-20T16:46:15;7.80;;;3.67;;
12535;SDS011;6334;48.696;2.114;2022-10-20T16:48:47;6.10;;;3.80;;
12535;SDS011;6334;48.696;2.114;2022-10-20T16:51:17;8.97;;;4.30;;
12535;SDS011;6334;48.696;2.114;2022-10-20T16:53:48;9.40;;;3.83;;
12535;SDS011;6334;48.696;2.114;2022-10-20T16:56:18;9.80;;;3.63;;
12535;SDS011;6334;48.696;2.114;2022-10-20T16:58:49;7.93;;;3.23;;
12535;SDS011;6334;48.696;2.114;2022-10-20T17:01:21;7.03;;;3.00;;
12535;SDS011;6334;48.696;2.114;2022-10-20T17:03:51;6.63;;;2.60;;
12535;SDS011;6334;48.696;2.114;2022-10-20T17:06:22;5.23;;;3.07;;
12535;SDS011;6334;48.696;2.114;2022-10-20T17:08:52;7.27;;;3.30;;
12535;SDS011;6334;48.696;2.114;2022-10-20T17:11:27;7.83;;;3.13;;
12535;SDS011;6334;48.696;2.114;2022-10-20T17:13:56;8.47;;;3.40;;
12535;SDS011;6334;48.696;2.114;2022-10-20T17:16:39;4.33;;;2.93;;
12535;SDS011;6334;48.696;2.114;2022-10-20T17:19:08;3.63;;;2.67;;
12535;SDS011;6334;48.696;2.114;2022-10-20T17:21:41;5.23;;;2.90;;